createdAt,value
2023-01-03T00:05:00.716Z,2.20
2023-01-03T00:10:12.754Z,2.10
2023-01-03T00:15:15.777Z,2.50
2023-01-03T00:20:22.398Z,1.97
2023-01-03T00:25:26.809Z,3.27
2023-01-03T00:30:28.510Z,2.87
2023-01-03T00:35:32.511Z,2.07
2023-01-03T00:40:36.527Z,2.50
2023-01-03T00:45:40.567Z,1.97
2023-01-03T00:50:45.156Z,2.20
2023-01-03T00:55:47.926Z,2.10
2023-01-03T01:00:52.206Z,2.10
2023-01-03T01:05:55.349Z,1.30
2023-01-03T01:11:02.985Z,2.30
2023-01-03T01:16:13.418Z,1.73
2023-01-03T01:21:19.096Z,1.77
2023-01-03T01:26:24.458Z,1.60
2023-01-03T01:31:29.064Z,2.27
2023-01-03T01:36:38.064Z,2.10
2023-01-03T01:41:59.424Z,2.23
2023-01-03T01:47:02.471Z,2.10
2023-01-03T01:52:04.761Z,2.60
2023-01-03T01:57:14.938Z,2.20
2023-01-03T02:02:21.422Z,2.50
2023-01-03T02:07:38.295Z,2.10
2023-01-03T02:13:08.176Z,2.70
2023-01-03T02:18:36.447Z,2.80
2023-01-03T02:23:38.114Z,3.23
2023-01-03T02:29:00.334Z,3.33
2023-01-03T02:34:21.366Z,3.40
2023-01-03T02:39:26.153Z,3.13
2023-01-03T02:44:35.902Z,4.07
2023-01-03T02:49:50.986Z,4.30
2023-01-03T02:54:58.503Z,4.63
2023-01-03T03:00:08.642Z,4.57
2023-01-03T03:05:21.291Z,5.07
2023-01-03T03:10:41.643Z,5.23
2023-01-03T03:15:49.140Z,5.37
2023-01-03T03:21:15.956Z,4.97
2023-01-03T03:26:25.638Z,5.17
2023-01-03T03:31:35.670Z,4.80
2023-01-03T03:37:02.677Z,5.23
2023-01-03T03:42:39.905Z,4.57
2023-01-03T03:47:59.474Z,5.00
2023-01-03T03:53:05.649Z,4.43
2023-01-03T03:58:45.950Z,4.10
2023-01-03T04:03:58.465Z,3.73
2023-01-03T04:09:00.617Z,3.53
2023-01-03T04:14:05.742Z,3.93
2023-01-03T04:19:09.768Z,3.83
2023-01-03T04:24:13.587Z,4.57
2023-01-03T04:29:17.709Z,4.07
2023-01-03T04:34:19.719Z,3.60
2023-01-03T04:39:21.440Z,3.97
2023-01-03T04:44:24.216Z,4.10
2023-01-03T04:49:25.893Z,4.27
2023-01-03T04:54:27.738Z,4.60
2023-01-03T04:59:37.226Z,3.70
2023-01-03T05:04:42.015Z,4.03
2023-01-03T05:09:46.155Z,4.30
2023-01-03T05:14:47.876Z,4.13
2023-01-03T05:20:08.300Z,6.20
2023-01-03T05:25:29.053Z,5.03
2023-01-03T05:30:33.504Z,4.57
2023-01-03T05:35:35.567Z,4.87
2023-01-03T05:40:41.234Z,4.27
2023-01-03T05:45:51.809Z,4.47
2023-01-03T05:50:57.325Z,4.50
2023-01-03T05:56:06.165Z,4.83
2023-01-03T06:01:13.043Z,4.90
2023-01-03T06:06:19.477Z,4.73
2023-01-03T06:11:23.974Z,5.10
2023-01-03T06:16:46.395Z,6.07
2023-01-03T06:21:48.229Z,6.93
2023-01-03T06:26:49.985Z,6.27
2023-01-03T06:31:51.820Z,7.30
2023-01-03T06:36:59.324Z,8.23
2023-01-03T06:42:23.725Z,8.60
2023-01-03T06:47:43.996Z,9.43
2023-01-03T06:53:04.118Z,9.10
2023-01-03T06:58:08.590Z,9.83
2023-01-03T07:03:13.342Z,11.53
2023-01-03T07:08:17.676Z,13.20
2023-01-03T07:13:40.672Z,13.90
2023-01-03T07:18:42.451Z,14.13
2023-01-03T07:23:46.533Z,16.20
2023-01-03T07:28:50.531Z,17.73
2023-01-03T07:33:53.291Z,16.97
2023-01-03T07:38:56.086Z,17.90
2023-01-03T07:44:01.269Z,18.53
2023-01-03T07:49:11.550Z,18.93
2023-01-03T07:54:14.026Z,19.07
2023-01-03T07:59:16.145Z,18.63
2023-01-03T08:04:22.533Z,20.70
2023-01-03T08:09:43.640Z,19.77
2023-01-03T08:14:45.754Z,18.20
2023-01-03T08:19:47.630Z,18.57
2023-01-03T08:24:53.308Z,18.30
2023-01-03T08:29:55.033Z,17.07
2023-01-03T08:34:57.029Z,19.27
2023-01-03T08:40:01.953Z,19.00
2023-01-03T08:45:10.649Z,18.03
2023-01-03T08:50:14.719Z,18.67
2023-01-03T08:55:18.578Z,18.83
2023-01-03T09:00:22.831Z,18.70
2023-01-03T09:05:27.242Z,19.70
2023-01-03T09:10:31.297Z,19.13
2023-01-03T09:15:33.136Z,20.50
2023-01-03T09:20:35.678Z,19.10
2023-01-03T09:25:39.907Z,18.50
2023-01-03T09:30:41.617Z,18.27
2023-01-03T09:35:44.658Z,17.40
2023-01-03T09:41:00.895Z,17.50
2023-01-03T09:46:03.119Z,15.57
2023-01-03T09:51:38.135Z,18.47
2023-01-03T09:56:58.482Z,18.87
2023-01-03T10:02:48.269Z,18.43
2023-01-03T10:08:10.534Z,19.77
2023-01-03T10:13:54.250Z,19.53
2023-01-03T10:19:10.499Z,19.10
2023-01-03T10:24:18.959Z,17.90
2023-01-03T10:29:23.102Z,18.23
2023-01-03T10:34:27.852Z,17.07
2023-01-03T10:39:31.759Z,17.83
2023-01-03T10:44:35.704Z,16.93
2023-01-03T10:49:39.619Z,16.53
2023-01-03T10:54:46.909Z,17.83
2023-01-03T10:59:55.655Z,16.87
2023-01-03T11:05:15.965Z,16.33
2023-01-03T11:10:20.199Z,17.53
2023-01-03T11:15:39.063Z,19.40
2023-01-03T11:20:56.309Z,18.63
2023-01-03T11:26:24.789Z,19.90
2023-01-03T11:31:44.153Z,20.40
2023-01-03T11:36:54.256Z,22.10
2023-01-03T11:42:29.230Z,20.73
2023-01-03T11:47:36.996Z,20.10
2023-01-03T11:52:45.464Z,21.37
2023-01-03T11:58:02.364Z,23.07
2023-01-03T12:03:14.388Z,27.63
2023-01-03T12:08:25.717Z,27.47
2023-01-03T12:13:32.329Z,25.77
2023-01-03T12:19:14.375Z,28.23
2023-01-03T12:24:37.265Z,28.40
2023-01-03T12:29:56.530Z,26.70
2023-01-03T12:35:21.696Z,26.73
2023-01-03T12:40:23.341Z,25.93
2023-01-03T12:45:44.913Z,27.17
2023-01-03T12:50:54.884Z,24.93
2023-01-03T12:56:29.335Z,26.93
2023-01-03T13:01:53.771Z,27.80
2023-01-03T13:07:04.075Z,25.57
2023-01-03T13:12:16.732Z,24.87
2023-01-03T13:17:22.806Z,25.67
2023-01-03T13:22:33.613Z,27.37
2023-01-03T13:27:37.896Z,27.17
2023-01-03T13:33:24.924Z,29.43
2023-01-03T13:38:29.556Z,29.73
2023-01-03T13:43:39.717Z,30.47
2023-01-03T13:48:53.669Z,31.13
2023-01-03T13:54:05.567Z,31.90
2023-01-03T13:59:18.915Z,31.70
2023-01-03T14:04:20.772Z,38.43
2023-01-03T14:09:27.856Z,36.40
2023-01-03T14:14:35.134Z,36.47
2023-01-03T14:19:40.677Z,49.13
2023-01-03T14:24:57.156Z,41.87
2023-01-03T14:30:01.645Z,39.83
2023-01-03T14:35:06.481Z,41.53
2023-01-03T14:40:19.472Z,41.43
2023-01-03T14:45:21.462Z,44.87
2023-01-03T14:50:29.103Z,42.50
2023-01-03T14:55:33.013Z,49.23
2023-01-03T15:00:36.357Z,49.80
2023-01-03T15:05:43.465Z,48.20
2023-01-03T15:10:52.669Z,54.40
2023-01-03T15:15:56.564Z,49.20
2023-01-03T15:21:02.110Z,51.53
2023-01-03T15:26:18.926Z,53.23
2023-01-03T15:31:26.672Z,53.33
2023-01-03T15:36:30.465Z,54.27
2023-01-03T15:42:19.743Z,56.70
2023-01-03T15:47:21.136Z,56.77
2023-01-03T15:52:33.074Z,56.80
2023-01-03T15:57:34.849Z,50.80
2023-01-03T16:02:38.213Z,49.87
2023-01-03T16:07:40.931Z,47.77
2023-01-03T16:12:45.327Z,45.97
2023-01-03T16:17:52.873Z,45.03
2023-01-03T16:23:01.717Z,40.53
2023-01-03T16:28:12.093Z,36.87
2023-01-03T16:33:29.530Z,37.03
2023-01-03T16:38:32.793Z,37.00
2023-01-03T16:43:43.640Z,37.47
2023-01-03T16:48:52.973Z,34.30
2023-01-03T16:53:59.145Z,35.13
2023-01-03T16:59:03.613Z,32.57
2023-01-03T17:04:05.439Z,35.63
2023-01-03T17:09:20.340Z,32.30
2023-01-03T17:14:22.440Z,32.93
2023-01-03T17:20:02.912Z,31.73
2023-01-03T17:24:51.577Z,29.37
2023-01-03T17:29:59.326Z,32.80
2023-01-03T17:35:04.631Z,30.60
2023-01-03T17:40:18.386Z,28.97
2023-01-03T17:45:39.068Z,29.13
2023-01-03T17:50:41.202Z,27.07
2023-01-03T17:55:44.781Z,28.10
2023-01-03T18:00:46.703Z,25.17
2023-01-03T18:05:49.491Z,25.47
2023-01-03T18:10:53.836Z,21.90
2023-01-03T18:15:58.944Z,24.23
2023-01-03T18:21:05.471Z,21.47
2023-01-03T18:26:18.009Z,17.97
2023-01-03T18:31:20.809Z,19.00
2023-01-03T18:36:27.997Z,16.87
2023-01-03T18:41:33.498Z,17.23
2023-01-03T18:46:35.350Z,17.70
2023-01-03T18:51:37.134Z,19.47
2023-01-03T18:56:43.063Z,19.07
2023-01-03T19:01:44.961Z,20.73
2023-01-03T19:06:52.449Z,22.77
2023-01-03T19:11:56.065Z,20.90
2023-01-03T19:16:57.870Z,21.73
2023-01-03T19:21:59.613Z,19.60
2023-01-03T19:27:26.306Z,20.73
2023-01-03T19:32:31.120Z,18.03
2023-01-03T19:37:35.105Z,19.43
2023-01-03T19:42:49.061Z,18.47
2023-01-03T19:47:53.370Z,17.50
2023-01-03T19:52:55.867Z,16.80
2023-01-03T19:58:04.662Z,17.23
2023-01-03T20:03:16.909Z,16.03
2023-01-03T20:08:18.824Z,17.43
2023-01-03T20:13:26.358Z,17.33
2023-01-03T20:18:36.418Z,14.97
2023-01-03T20:23:43.640Z,15.57
2023-01-03T20:28:49.494Z,15.73
2023-01-03T20:33:56.063Z,14.87
2023-01-03T20:38:57.843Z,13.70
2023-01-03T20:44:04.998Z,14.03
2023-01-03T20:49:16.581Z,12.50
2023-01-03T20:54:19.646Z,12.13
2023-01-03T20:59:21.345Z,11.93
2023-01-03T21:04:28.538Z,10.07
2023-01-03T21:09:32.781Z,10.27
2023-01-03T21:14:36.559Z,9.83
2023-01-03T21:19:43.127Z,7.37
2023-01-03T21:24:50.981Z,7.87
2023-01-03T21:29:58.533Z,7.93
2023-01-03T21:35:00.209Z,7.90
2023-01-03T21:40:04.591Z,7.33
2023-01-03T21:45:11.978Z,7.77
2023-01-03T21:50:15.959Z,6.70
2023-01-03T21:55:24.177Z,6.70
2023-01-03T22:00:28.215Z,6.67
2023-01-03T22:05:34.918Z,5.43
2023-01-03T22:10:38.920Z,6.90
2023-01-03T22:15:43.671Z,7.17
2023-01-03T22:20:50.124Z,6.13
2023-01-03T22:25:55.119Z,6.33
2023-01-03T22:30:56.812Z,5.53
2023-01-03T22:36:02.062Z,5.70
2023-01-03T22:41:17.674Z,5.93
2023-01-03T22:46:21.025Z,4.90
2023-01-03T22:51:27.528Z,4.97
2023-01-03T22:56:32.341Z,4.63
2023-01-03T23:01:40.348Z,5.57
2023-01-03T23:06:44.963Z,4.80
2023-01-03T23:12:08.527Z,4.33
2023-01-03T23:17:32.627Z,4.10
2023-01-03T23:22:39.566Z,4.43
2023-01-03T23:27:41.324Z,4.00
2023-01-03T23:32:45.254Z,3.43
2023-01-03T23:37:51.767Z,3.63
2023-01-03T23:42:55.977Z,3.07
2023-01-03T23:47:57.650Z,3.83
2023-01-03T23:52:59.322Z,3.33
2023-01-03T23:58:01.189Z,3.00
